createdAt,value
2023-05-03T00:00:21.174Z,47.63
2023-05-03T00:02:51.173Z,47.77
2023-05-03T00:05:19.819Z,47.78
2023-05-03T00:07:48.323Z,47.61
2023-05-03T00:10:16.769Z,47.72
2023-05-03T00:12:45.545Z,47.67
2023-05-03T00:15:13.904Z,48.00
2023-05-03T00:17:42.416Z,47.94
2023-05-03T00:20:13.079Z,47.70
2023-05-03T00:22:41.564Z,47.57
2023-05-03T00:25:10.895Z,47.73
2023-05-03T00:27:39.391Z,47.58
2023-05-03T00:30:09.615Z,47.66
2023-05-03T00:32:38.234Z,47.67
2023-05-03T00:35:07.499Z,47.90
2023-05-03T00:37:38.253Z,47.75
2023-05-03T00:40:08.683Z,47.84
2023-05-03T00:42:37.250Z,47.67
2023-05-03T00:45:06.811Z,47.77
2023-05-03T00:47:35.687Z,48.04
2023-05-03T00:50:06.179Z,47.90
2023-05-03T00:52:37.074Z,47.77
2023-05-03T00:55:06.652Z,47.80
2023-05-03T00:57:35.117Z,47.66
2023-05-03T01:00:03.861Z,47.77
2023-05-03T01:02:32.762Z,48.12
2023-05-03T01:05:02.499Z,47.75
2023-05-03T01:07:41.622Z,47.64
2023-05-03T01:10:22.526Z,48.05
2023-05-03T01:13:01.482Z,47.87
2023-05-03T01:15:44.011Z,48.10
2023-05-03T01:18:15.945Z,48.03
2023-05-03T01:20:47.936Z,47.86
2023-05-03T01:23:30.041Z,48.03
2023-05-03T01:25:59.901Z,47.81
2023-05-03T01:28:28.448Z,47.80
2023-05-03T01:30:59.853Z,47.95
2023-05-03T01:33:46.319Z,47.99
2023-05-03T01:36:24.172Z,48.00
2023-05-03T01:38:52.641Z,48.07
2023-05-03T01:41:25.545Z,47.72
2023-05-03T01:43:56.051Z,47.84
2023-05-03T01:46:24.763Z,47.99
2023-05-03T01:48:53.225Z,48.18
2023-05-03T01:51:21.723Z,48.00
2023-05-03T01:53:51.333Z,47.81
2023-05-03T01:56:19.771Z,47.98
2023-05-03T01:58:49.603Z,48.07
2023-05-03T02:01:18.203Z,47.99
2023-05-03T02:03:46.733Z,47.95
2023-05-03T02:06:15.231Z,47.87
2023-05-03T02:08:43.754Z,47.96
2023-05-03T02:11:12.712Z,47.87
2023-05-03T02:13:41.241Z,47.85
2023-05-03T02:16:11.440Z,47.97
2023-05-03T02:18:39.848Z,48.12
2023-05-03T02:21:10.121Z,48.13
2023-05-03T02:23:38.635Z,48.05
2023-05-03T02:26:08.009Z,47.80
2023-05-03T02:28:36.631Z,47.89
2023-05-03T02:31:06.436Z,48.00
2023-05-03T02:33:36.488Z,48.01
2023-05-03T02:36:05.363Z,47.88
2023-05-03T02:38:34.039Z,47.90
2023-05-03T02:41:02.519Z,47.97
2023-05-03T02:43:32.315Z,47.76
2023-05-03T02:46:00.913Z,47.76
2023-05-03T02:48:29.352Z,47.87
2023-05-03T02:50:59.253Z,47.73
2023-05-03T02:53:27.702Z,47.81
2023-05-03T02:56:00.237Z,47.80
2023-05-03T02:58:28.813Z,48.08
2023-05-03T03:00:57.828Z,47.82
2023-05-03T03:03:31.780Z,47.94
2023-05-03T03:06:02.033Z,48.08
2023-05-03T03:08:30.712Z,48.09
2023-05-03T03:11:03.566Z,48.10
2023-05-03T03:13:32.237Z,47.91
2023-05-03T03:16:01.693Z,47.98
2023-05-03T03:18:30.220Z,47.81
2023-05-03T03:20:58.733Z,47.69
2023-05-03T03:23:28.696Z,47.66
2023-05-03T03:25:57.200Z,47.83
2023-05-03T03:28:26.692Z,47.77
2023-05-03T03:31:02.560Z,48.06
2023-05-03T03:33:32.171Z,47.77
2023-05-03T03:36:10.103Z,48.00
2023-05-03T03:38:43.013Z,47.84
2023-05-03T03:41:13.076Z,47.80
2023-05-03T03:43:41.580Z,47.97
2023-05-03T03:46:15.866Z,47.99
2023-05-03T03:48:44.623Z,47.77
2023-05-03T03:51:13.377Z,47.95
2023-05-03T03:53:48.637Z,47.99
2023-05-03T03:56:17.769Z,47.76
2023-05-03T03:58:47.298Z,48.15
2023-05-03T04:01:15.942Z,47.76
2023-05-03T04:03:47.593Z,47.79
2023-05-03T04:06:16.603Z,48.26
2023-05-03T04:08:45.313Z,47.73
2023-05-03T04:11:17.174Z,47.73
2023-05-03T04:13:51.673Z,47.86
2023-05-03T04:16:20.500Z,47.96
2023-05-03T04:18:49.122Z,48.10
2023-05-03T04:21:18.478Z,47.92
2023-05-03T04:23:47.065Z,48.11
2023-05-03T04:26:30.538Z,48.04
2023-05-03T04:29:03.983Z,47.92
2023-05-03T04:31:32.954Z,47.94
2023-05-03T04:34:01.687Z,48.14
2023-05-03T04:36:31.349Z,48.03
2023-05-03T04:39:00.610Z,48.34
2023-05-03T04:41:30.513Z,48.14
2023-05-03T04:43:59.496Z,48.05
2023-05-03T04:46:28.165Z,48.47
2023-05-03T04:48:57.610Z,48.26
2023-05-03T04:51:28.289Z,48.20
2023-05-03T04:53:57.368Z,48.17
2023-05-03T04:56:26.749Z,48.25
2023-05-03T04:59:05.456Z,47.92
2023-05-03T05:01:34.930Z,48.11
2023-05-03T05:04:05.187Z,48.61
2023-05-03T05:06:40.193Z,47.97
2023-05-03T05:09:22.168Z,47.44
2023-05-03T05:11:53.947Z,46.48
2023-05-03T05:14:28.159Z,46.68
2023-05-03T05:16:56.987Z,45.62
2023-05-03T05:19:25.471Z,45.24
2023-05-03T05:21:54.174Z,44.89
2023-05-03T05:24:25.043Z,44.74
2023-05-03T05:26:53.699Z,44.83
2023-05-03T05:29:22.455Z,44.57
2023-05-03T05:31:53.090Z,44.60
2023-05-03T05:34:22.297Z,44.32
2023-05-03T05:36:52.182Z,44.50
2023-05-03T05:39:23.364Z,44.53
2023-05-03T05:41:52.722Z,44.08
2023-05-03T05:44:21.192Z,44.07
2023-05-03T05:46:52.433Z,43.77
2023-05-03T05:49:21.938Z,43.68
2023-05-03T05:51:50.380Z,43.71
2023-05-03T05:54:18.931Z,43.68
2023-05-03T05:56:47.482Z,43.82
2023-05-03T05:59:16.375Z,43.58
2023-05-03T06:01:46.340Z,43.73
2023-05-03T06:04:18.842Z,43.91
2023-05-03T06:06:48.019Z,43.69
2023-05-03T06:09:24.204Z,44.07
2023-05-03T06:11:56.346Z,44.26
2023-05-03T06:14:27.347Z,44.42
2023-05-03T06:16:56.096Z,44.47
2023-05-03T06:19:25.888Z,44.82
2023-05-03T06:21:54.320Z,45.23
2023-05-03T06:24:23.470Z,45.35
2023-05-03T06:26:55.705Z,45.53
2023-05-03T06:29:24.335Z,45.54
2023-05-03T06:31:52.900Z,45.60
2023-05-03T06:34:22.638Z,45.72
2023-05-03T06:36:55.820Z,45.63
2023-05-03T06:39:24.958Z,46.26
2023-05-03T06:41:53.408Z,46.11
2023-05-03T06:44:21.974Z,46.17
2023-05-03T06:46:50.627Z,46.83
2023-05-03T06:49:19.244Z,46.83
2023-05-03T06:51:47.920Z,45.84
2023-05-03T06:54:17.785Z,45.62
2023-05-03T06:56:46.229Z,45.93
2023-05-03T06:59:14.656Z,46.40
2023-05-03T07:01:43.158Z,46.45
2023-05-03T07:04:11.798Z,46.84
2023-05-03T07:06:52.480Z,46.87
2023-05-03T07:09:32.080Z,47.26
2023-05-03T07:12:04.452Z,47.07
2023-05-03T07:14:32.891Z,47.19
2023-05-03T07:17:01.310Z,47.02
2023-05-03T07:19:29.992Z,46.97
2023-05-03T07:21:58.467Z,46.87
2023-05-03T07:24:28.297Z,46.15
2023-05-03T07:26:56.853Z,46.17
2023-05-03T07:29:26.179Z,45.88
2023-05-03T07:31:54.641Z,45.94
2023-05-03T07:34:23.120Z,45.90
2023-05-03T07:36:51.934Z,45.05
2023-05-03T07:39:20.474Z,45.07
2023-05-03T07:41:50.319Z,45.02
2023-05-03T07:44:18.805Z,45.28
2023-05-03T07:46:47.293Z,44.44
2023-05-03T07:49:16.092Z,45.15
2023-05-03T07:51:44.595Z,44.91
2023-05-03T07:54:13.101Z,44.96
2023-05-03T07:56:41.540Z,44.94
2023-05-03T07:59:11.351Z,44.71
2023-05-03T08:01:40.398Z,44.64
2023-05-03T08:04:09.167Z,44.69
2023-05-03T08:06:38.523Z,44.71
2023-05-03T08:09:07.095Z,44.63
2023-05-03T08:11:35.639Z,44.38
2023-05-03T08:14:04.148Z,44.21
2023-05-03T08:16:33.887Z,43.69
2023-05-03T08:19:02.304Z,43.88
2023-05-03T08:21:31.052Z,44.40
2023-05-03T08:23:59.539Z,43.74
2023-05-03T08:26:28.562Z,43.87
2023-05-03T08:28:57.230Z,43.88
2023-05-03T08:31:25.864Z,44.13
2023-05-03T08:33:55.854Z,44.10
2023-05-03T08:36:24.327Z,44.35
2023-05-03T08:38:52.855Z,44.17
2023-05-03T08:41:24.781Z,44.50
2023-05-03T08:43:55.014Z,44.13
2023-05-03T08:46:25.682Z,44.14
2023-05-03T08:48:56.136Z,44.64
2023-05-03T08:51:25.607Z,44.47
2023-05-03T08:53:54.081Z,44.68
2023-05-03T08:56:29.931Z,45.16
2023-05-03T08:59:04.785Z,45.21
2023-05-03T09:01:33.366Z,44.99
2023-05-03T09:04:04.176Z,44.70
2023-05-03T09:06:34.029Z,44.80
2023-05-03T09:09:05.288Z,44.88
2023-05-03T09:11:35.013Z,44.90
2023-05-03T09:14:10.988Z,45.00
2023-05-03T09:16:41.087Z,44.79
2023-05-03T09:19:12.566Z,44.81
2023-05-03T09:21:42.712Z,44.47
2023-05-03T09:24:15.834Z,44.92
2023-05-03T09:26:45.580Z,44.42
2023-05-03T09:29:28.965Z,44.72
2023-05-03T09:32:02.514Z,44.91
2023-05-03T09:34:32.647Z,45.04
2023-05-03T09:37:01.324Z,45.24
2023-05-03T09:39:29.893Z,45.05
2023-05-03T09:41:58.705Z,44.93
2023-05-03T09:44:42.466Z,44.13
2023-05-03T09:47:12.465Z,43.19
2023-05-03T09:49:42.502Z,42.77
2023-05-03T09:52:11.361Z,44.07
2023-05-03T09:54:40.736Z,44.61
2023-05-03T09:57:10.064Z,44.75
2023-05-03T09:59:39.638Z,44.71
2023-05-03T10:02:08.922Z,44.77
2023-05-03T10:04:44.607Z,44.82
2023-05-03T10:07:17.459Z,45.98
2023-05-03T10:09:48.306Z,45.47
2023-05-03T10:12:17.550Z,45.35
2023-05-03T10:14:47.942Z,45.63
2023-05-03T10:17:20.006Z,45.29
2023-05-03T10:19:53.390Z,45.07
2023-05-03T10:22:21.933Z,44.79
2023-05-03T10:25:09.890Z,44.58
2023-05-03T10:27:42.758Z,44.40
2023-05-03T10:30:29.224Z,45.64
2023-05-03T10:32:58.099Z,44.88
2023-05-03T10:35:31.272Z,44.52
2023-05-03T10:37:59.702Z,44.36
2023-05-03T10:40:42.988Z,44.92
2023-05-03T10:43:41.282Z,44.78
2023-05-03T10:46:30.456Z,44.56
2023-05-03T10:49:21.903Z,44.82
2023-05-03T10:51:53.105Z,44.38
2023-05-03T10:54:21.535Z,44.52
2023-05-03T10:56:51.476Z,44.69
2023-05-03T10:59:20.403Z,45.12
2023-05-03T11:01:52.115Z,45.37
2023-05-03T11:04:31.858Z,45.12
2023-05-03T11:07:02.493Z,45.29
2023-05-03T11:09:34.225Z,45.45
2023-05-03T11:12:07.036Z,44.86
2023-05-03T11:14:35.633Z,45.06
2023-05-03T11:17:04.145Z,45.11
2023-05-03T11:19:33.638Z,45.06
2023-05-03T11:22:03.707Z,44.75
2023-05-03T11:24:32.199Z,44.45
2023-05-03T11:27:08.587Z,44.73
2023-05-03T11:29:37.894Z,44.47
2023-05-03T11:32:09.507Z,44.26
2023-05-03T11:34:39.969Z,44.29
2023-05-03T11:37:11.043Z,42.78
2023-05-03T11:39:39.482Z,43.83
2023-05-03T11:42:08.298Z,43.81
2023-05-03T11:44:37.624Z,43.95
2023-05-03T11:47:06.800Z,44.21
2023-05-03T11:49:35.699Z,44.32
2023-05-03T11:52:04.434Z,44.19
2023-05-03T11:54:34.205Z,44.47
2023-05-03T11:57:13.798Z,44.58
2023-05-03T11:59:42.515Z,44.37
2023-05-03T12:02:14.059Z,44.33
2023-05-03T12:04:44.683Z,44.48
2023-05-03T12:07:17.850Z,44.45
2023-05-03T12:10:03.287Z,44.36
2023-05-03T12:12:42.230Z,44.11
2023-05-03T12:15:16.401Z,43.42
2023-05-03T12:17:48.886Z,43.81
2023-05-03T12:22:53.017Z,43.76
2023-05-03T12:25:28.348Z,44.27
2023-05-03T12:28:18.634Z,44.31
2023-05-03T12:30:52.709Z,44.74
2023-05-03T12:33:22.781Z,45.07
2023-05-03T12:35:54.287Z,44.93
2023-05-03T12:38:25.287Z,44.42
2023-05-03T12:40:55.576Z,44.39
2023-05-03T12:43:24.134Z,44.30
2023-05-03T12:46:07.687Z,44.18
2023-05-03T12:48:42.076Z,43.82
2023-05-03T12:53:47.324Z,44.36
2023-05-03T12:56:17.841Z,43.31
2023-05-03T13:02:17.731Z,43.72
2023-05-03T13:04:44.626Z,43.70
2023-05-03T13:07:00.461Z,43.86
2023-05-03T13:10:12.573Z,43.42
2023-05-03T13:12:21.785Z,43.48
2023-05-03T13:14:51.197Z,43.73
2023-05-03T13:17:22.658Z,43.74
2023-05-03T13:19:52.398Z,43.67
2023-05-03T13:22:20.893Z,43.85
2023-05-03T13:24:49.918Z,43.81
2023-05-03T13:27:19.647Z,43.61
2023-05-03T13:29:49.304Z,43.89
2023-05-03T13:32:18.624Z,43.62
2023-05-03T13:34:47.238Z,43.68
2023-05-03T13:37:18.531Z,43.88
2023-05-03T13:39:47.311Z,42.26
2023-05-03T13:42:15.933Z,43.52
2023-05-03T13:44:47.736Z,43.42
2023-05-03T13:47:16.379Z,43.66
2023-05-03T13:49:44.944Z,43.63
2023-05-03T13:52:13.444Z,43.47
2023-05-03T13:54:42.918Z,43.81
2023-05-03T13:57:11.414Z,43.14
2023-05-03T13:59:39.998Z,42.61
2023-05-03T14:02:09.806Z,42.75
2023-05-03T14:04:38.367Z,42.02
2023-05-03T14:07:07.008Z,42.68
2023-05-03T14:09:39.299Z,43.44
2023-05-03T14:12:08.181Z,42.50
2023-05-03T14:14:37.067Z,43.13
2023-05-03T14:17:06.589Z,43.43
2023-05-03T14:19:37.763Z,43.29
2023-05-03T14:22:06.672Z,42.93
2023-05-03T14:24:35.238Z,43.37
2023-05-03T14:27:03.804Z,43.00
2023-05-03T14:29:32.307Z,43.33
2023-05-03T14:32:01.108Z,43.35
2023-05-03T14:34:29.821Z,43.23
2023-05-03T14:36:59.888Z,42.94
2023-05-03T14:39:28.385Z,43.11
2023-05-03T14:41:56.934Z,42.54
2023-05-03T14:44:25.484Z,42.73
2023-05-03T14:46:54.053Z,42.85
2023-05-03T14:49:22.583Z,42.42
2023-05-03T14:51:51.021Z,42.62
2023-05-03T14:54:23.035Z,41.73
2023-05-03T14:56:51.895Z,39.25
2023-05-03T14:59:20.400Z,38.87
2023-05-03T15:01:48.933Z,38.46
2023-05-03T15:04:17.426Z,39.43
2023-05-03T15:06:45.888Z,39.93
2023-05-03T15:09:14.358Z,39.03
2023-05-03T15:11:45.483Z,39.70
2023-05-03T15:14:13.970Z,39.95
2023-05-03T15:16:42.524Z,40.02
2023-05-03T15:19:11.034Z,39.70
2023-05-03T15:21:46.374Z,39.80
2023-05-03T15:24:15.104Z,39.77
2023-05-03T15:26:45.173Z,39.72
2023-05-03T15:29:14.919Z,39.71
2023-05-03T15:31:43.851Z,40.02
2023-05-03T15:34:12.600Z,40.15
2023-05-03T15:36:41.618Z,40.16
2023-05-03T15:39:10.205Z,40.49
2023-05-03T15:41:38.677Z,39.10
2023-05-03T15:44:09.767Z,37.66
2023-05-03T15:46:40.697Z,38.17
2023-05-03T15:49:11.795Z,39.51
2023-05-03T15:51:40.349Z,40.11
2023-05-03T15:54:08.862Z,37.50
2023-05-03T15:56:38.301Z,38.04
2023-05-03T15:59:08.398Z,37.37
2023-05-03T16:01:37.237Z,38.62
2023-05-03T16:04:07.617Z,39.08
2023-05-03T16:06:36.124Z,39.45
2023-05-03T16:09:06.387Z,39.21
2023-05-03T16:11:35.659Z,37.68
2023-05-03T16:14:04.896Z,37.01
2023-05-03T16:16:34.798Z,37.16
2023-05-03T16:19:03.549Z,38.06
2023-05-03T16:21:32.416Z,38.68
2023-05-03T16:24:01.320Z,39.52
2023-05-03T16:26:31.596Z,40.11
2023-05-03T16:29:00.036Z,40.45
2023-05-03T16:31:30.006Z,40.50
2023-05-03T16:34:00.376Z,40.67
2023-05-03T16:36:28.971Z,40.90
2023-05-03T16:38:57.450Z,41.17
2023-05-03T16:41:26.049Z,41.58
2023-05-03T16:43:54.442Z,41.32
2023-05-03T16:46:22.870Z,41.97
2023-05-03T16:48:51.823Z,41.99
2023-05-03T16:51:22.805Z,41.81
2023-05-03T16:53:52.210Z,42.08
2023-05-03T16:56:21.795Z,42.00
2023-05-03T16:58:50.871Z,42.27
2023-05-03T17:01:19.937Z,42.23
2023-05-03T17:03:48.552Z,42.49
2023-05-03T17:06:17.518Z,42.28
2023-05-03T17:08:47.736Z,42.38
2023-05-03T17:11:16.375Z,42.48
2023-05-03T17:13:45.088Z,42.52
2023-05-03T17:16:15.495Z,42.67
2023-05-03T17:18:44.466Z,42.94
2023-05-03T17:21:12.964Z,43.39
2023-05-03T17:23:42.022Z,43.26
2023-05-03T17:26:13.156Z,43.15
2023-05-03T17:28:42.070Z,43.29
2023-05-03T17:31:10.522Z,43.77
2023-05-03T17:33:39.086Z,43.69
2023-05-03T17:36:08.073Z,43.87
2023-05-03T17:38:36.760Z,43.27
2023-05-03T17:41:07.298Z,44.10
2023-05-03T17:43:37.326Z,44.00
2023-05-03T17:46:10.907Z,43.84
2023-05-03T17:48:40.559Z,44.17
2023-05-03T17:51:09.556Z,44.38
2023-05-03T17:53:38.015Z,44.53
2023-05-03T17:56:13.388Z,44.40
2023-05-03T17:58:43.522Z,44.28
2023-05-03T18:01:13.299Z,44.85
2023-05-03T18:03:42.585Z,44.71
2023-05-03T18:06:13.555Z,44.37
2023-05-03T18:08:42.388Z,44.82
2023-05-03T18:11:10.846Z,44.88
2023-05-03T18:13:40.119Z,45.07
2023-05-03T18:16:10.569Z,44.60
2023-05-03T18:18:39.278Z,44.50
2023-05-03T18:21:08.104Z,44.25
2023-05-03T18:23:36.533Z,44.25
2023-05-03T18:26:05.365Z,44.19
2023-05-03T18:28:34.866Z,44.17
2023-05-03T18:31:03.845Z,44.06
2023-05-03T18:33:34.824Z,44.30
2023-05-03T18:36:05.916Z,43.98
2023-05-03T18:38:34.385Z,43.88
2023-05-03T18:41:02.814Z,43.98
2023-05-03T18:43:32.114Z,44.39
2023-05-03T18:46:02.675Z,44.00
2023-05-03T18:48:31.157Z,44.41
2023-05-03T18:51:02.466Z,44.23
2023-05-03T18:53:31.890Z,44.00
2023-05-03T18:56:00.594Z,44.25
2023-05-03T18:58:29.220Z,44.07
2023-05-03T19:00:59.921Z,43.94
2023-05-03T19:03:29.428Z,43.95
2023-05-03T19:06:03.782Z,44.23
2023-05-03T19:08:32.413Z,44.33
2023-05-03T19:11:07.661Z,44.00
2023-05-03T19:13:36.517Z,44.12
2023-05-03T19:16:05.275Z,44.47
2023-05-03T19:18:33.748Z,44.30
2023-05-03T19:21:03.692Z,44.33
2023-05-03T19:23:32.355Z,44.67
2023-05-03T19:26:01.005Z,44.46
2023-05-03T19:28:30.358Z,44.23
2023-05-03T19:30:59.088Z,47.03
2023-05-03T19:33:28.085Z,49.70
2023-05-03T19:35:57.436Z,49.85
2023-05-03T19:38:27.423Z,49.98
2023-05-03T19:40:57.215Z,49.94
2023-05-03T19:43:25.940Z,49.95
2023-05-03T19:45:54.410Z,49.72
2023-05-03T19:48:22.901Z,49.64
2023-05-03T19:50:51.355Z,50.09
2023-05-03T19:53:19.757Z,49.90
2023-05-03T19:55:58.163Z,49.95
2023-05-03T19:58:27.456Z,50.09
2023-05-03T20:00:59.427Z,50.23
2023-05-03T20:03:28.457Z,50.27
2023-05-03T20:05:57.160Z,50.13
2023-05-03T20:08:26.218Z,50.23
2023-05-03T20:10:56.480Z,50.49
2023-05-03T20:13:27.170Z,50.13
2023-05-03T20:15:56.238Z,50.32
2023-05-03T20:18:24.736Z,50.47
2023-05-03T20:20:53.146Z,48.92
2023-05-03T20:23:22.201Z,47.96
2023-05-03T20:25:50.671Z,46.99
2023-05-03T20:28:20.401Z,46.54
2023-05-03T20:30:48.894Z,46.91
2023-05-03T20:33:17.391Z,46.38
2023-05-03T20:35:45.882Z,46.85
2023-05-03T20:38:14.406Z,46.62
2023-05-03T20:40:42.817Z,46.79
2023-05-03T20:43:11.228Z,46.48
2023-05-03T20:45:41.193Z,46.67
2023-05-03T20:48:09.716Z,46.86
2023-05-03T20:50:38.292Z,46.74
2023-05-03T20:53:06.778Z,46.73
2023-05-03T20:55:35.262Z,46.56
2023-05-03T20:58:03.823Z,46.40
2023-05-03T21:00:32.290Z,46.54
2023-05-03T21:03:02.212Z,46.57
2023-05-03T21:05:30.764Z,46.58
2023-05-03T21:07:59.162Z,46.51
2023-05-03T21:10:27.649Z,46.65
2023-05-03T21:12:56.225Z,46.71
2023-05-03T21:15:24.670Z,46.74
2023-05-03T21:17:53.157Z,46.80
2023-05-03T21:20:23.419Z,46.83
2023-05-03T21:22:51.872Z,46.89
2023-05-03T21:25:20.294Z,46.54
2023-05-03T21:27:48.754Z,46.50
2023-05-03T21:30:19.157Z,46.50
2023-05-03T21:32:49.808Z,46.60
2023-05-03T21:35:18.863Z,46.54
2023-05-03T21:37:49.838Z,46.78
2023-05-03T21:40:18.547Z,46.69
2023-05-03T21:42:47.186Z,46.87
2023-05-03T21:45:15.585Z,46.79
2023-05-03T21:47:44.077Z,46.76
2023-05-03T21:50:13.809Z,46.83
2023-05-03T21:52:42.922Z,46.75
2023-05-03T21:55:12.991Z,46.47
2023-05-03T21:57:41.434Z,46.61
2023-05-03T22:00:14.685Z,46.44
2023-05-03T22:02:43.167Z,46.30
2023-05-03T22:05:11.673Z,46.86
2023-05-03T22:07:40.147Z,46.53
2023-05-03T22:10:09.840Z,46.77
2023-05-03T22:12:39.694Z,46.55
2023-05-03T22:15:09.200Z,46.56
2023-05-03T22:17:37.985Z,46.67
2023-05-03T22:20:08.158Z,46.42
2023-05-03T22:22:37.065Z,46.42
2023-05-03T22:25:06.691Z,46.90
2023-05-03T22:27:35.251Z,46.77
2023-05-03T22:30:06.006Z,46.38
2023-05-03T22:32:34.593Z,46.35
2023-05-03T22:35:03.535Z,46.85
2023-05-03T22:37:32.135Z,46.67
2023-05-03T22:40:00.685Z,46.77
2023-05-03T22:42:29.157Z,46.77
2023-05-03T22:44:57.773Z,46.56
2023-05-03T22:47:27.959Z,46.69
2023-05-03T22:49:56.752Z,46.34
2023-05-03T22:52:25.225Z,46.87
2023-05-03T22:54:56.852Z,46.53
2023-05-03T22:57:25.387Z,46.59
2023-05-03T22:59:53.856Z,46.67
2023-05-03T23:02:22.351Z,46.47
2023-05-03T23:04:52.279Z,46.72
2023-05-03T23:07:20.896Z,46.54
2023-05-03T23:09:49.436Z,46.55
2023-05-03T23:12:17.885Z,46.54
2023-05-03T23:14:46.259Z,46.76
2023-05-03T23:17:14.933Z,46.64
2023-05-03T23:19:43.413Z,46.36
2023-05-03T23:22:13.230Z,46.46
2023-05-03T23:24:41.570Z,46.53
2023-05-03T23:27:12.405Z,46.46
2023-05-03T23:29:41.411Z,46.44
2023-05-03T23:32:10.245Z,46.86
2023-05-03T23:34:39.175Z,46.39
2023-05-03T23:37:07.580Z,46.79
2023-05-03T23:39:37.566Z,46.77
2023-05-03T23:42:06.072Z,46.65
2023-05-03T23:44:50.384Z,46.47
2023-05-03T23:47:22.715Z,46.82
2023-05-03T23:49:51.333Z,46.82
2023-05-03T23:52:20.501Z,46.76
2023-05-03T23:54:50.339Z,46.52
2023-05-03T23:57:18.765Z,46.68
2023-05-03T23:59:47.161Z,46.88
